KPVW

Hale County Airport

Plainview, Texas, USA
METAR KPVW 201655Z AUTO 06010KT 10SM CLR 15/04 A3041 RMK AO2 T01490035
Observed Flight Rules
Oct-20 @ 16:55 UTC (16 minutes ago) Visual Flight Rules
Wind Visibility Clouds
60° at 10 knots 10 miles
  • Clear skies
Temperatures Readings
Current 15°C / 59°F
Dewpoint 4°C / 39°F
Humidity 48%
Altimeter 30.41" Hg
Pressure 1030 hPa
Elevation 1028
METAR KPVW 201655Z AUTO 06010KT 10SM CLR 15/04 A3041 RMK AO2 T01490035
Observed Flight Rules
Oct-20 @ 16:55 UTC
(16 minutes ago)
VFR
Wind Visibility
60° at 10 knots 10 miles
Clouds
  • Clear skies
Temperature Dewpoint
15°C / 59°F 4°C / 39°F
Humidity Altimeter Pressure
48% 30.41" Hg 1030 hPa